Gure Fatima : — EAWO — position and weather

sailwx.info

Track history (hours):
 
Tides and Currents Weather Stations Pressure Air Temp Water Temp Dewpoint Dewpoint Depression Visibility Wind Speed Wind Dir Waves Ship Positions

Gure Fatima :

Last reported at 2017-Nov-18 08:48 UTC. Time now 2017-Nov-18 12:27 UTC.
Position N 43°25' W 002°43'.

Length 28 m; draft 3.2 m.

Type: Fishing. MMSI: 224081840.

Date/timePositionNaut miles runAvg speedWind from/ knotsBaromVisibWave heightAir tempDewpointWater temp
2017-Nov-18 08:48N 43°25' W 002°43'0 0.0
2017-Nov-18 08:30N 43°25' W 002°43'0 0.2
2017-Nov-18 08:00N 43°25' W 002°43'0 0.0
2017-Nov-17 23:09N 43°25' W 002°43'0 0.0
2017-Nov-17 23:00N 43°25' W 002°43'0 0.1
2017-Nov-17 22:30N 43°25' W 002°43'1 2.2
2017-Nov-17 22:00N 43°26' W 002°42'5 9.1
2017-Nov-17 21:30N 43°30' W 002°39'5 9.2
2017-Nov-17 21:01N 43°33' W 002°35'5 9.2
2017-Nov-17 20:30N 43°37' W 002°31'5 9.2
2017-Nov-17 20:00N 43°41' W 002°27'5 9.2
2017-Nov-17 19:30N 43°44' W 002°23'5 9.3
2017-Nov-17 19:00N 43°48' W 002°20'5 9.4
2017-Nov-17 18:30N 43°52' W 002°16'5 9.3
2017-Nov-17 18:01N 43°56' W 002°12'5 9.1
2017-Nov-17 17:30N 43°60' W 002°09'2 3.0
2017-Nov-17 17:00N 44°01' W 002°07'0 0.7
2017-Nov-17 16:30N 44°01' W 002°07'0 0.4
2017-Nov-17 16:01N 44°01' W 002°07'0 0.3
2017-Nov-17 15:31N 44°01' W 002°07'0 0.4
2017-Nov-17 15:00N 44°01' W 002°07'0 0.5
2017-Nov-17 14:30N 44°01' W 002°07'0 0.4
2017-Nov-17 14:01N 44°00' W 002°07'0 0.3
2017-Nov-17 13:31N 44°00' W 002°07'0 0.6
2017-Nov-17 13:00N 44°00' W 002°07'0 0.4
2017-Nov-17 12:30N 43°60' W 002°07'0 0.3
2017-Nov-17 12:00N 43°60' W 002°07'0 0.5
2017-Nov-17 11:30N 43°59' W 002°07'0 0.5
2017-Nov-17 11:01N 43°59' W 002°07'0 0.4
2017-Nov-17 10:31N 43°59' W 002°07'0 0.5
2017-Nov-17 10:01N 43°59' W 002°08'0 0.5
2017-Nov-17 09:30N 43°59' W 002°08'1 2.0
2017-Nov-17 09:00N 43°58' W 002°08'0 0.2
2017-Nov-17 08:30N 43°58' W 002°08'0 0.3
2017-Nov-17 08:00N 43°58' W 002°08'0 0.3
2017-Nov-17 07:30N 43°58' W 002°07'0 0.3
2017-Nov-17 07:00N 43°58' W 002°07'0 0.3
2017-Nov-17 06:30N 43°58' W 002°07'0 0.5
2017-Nov-17 06:00N 43°58' W 002°07'0 0.4
2017-Nov-17 05:30N 43°58' W 002°07'0 0.9
2017-Nov-17 05:00N 43°58' W 002°08'1 2.8
2017-Nov-17 04:30N 43°60' W 002°07'1 2.8
2017-Nov-17 04:00N 44°01' W 002°07'1 1.6
2017-Nov-17 03:29N 44°02' W 002°06'2 4.8
2017-Nov-17 03:00N 43°59' W 002°05'0 0.2
2017-Nov-17 02:30N 43°59' W 002°05'0 0.5
2017-Nov-17 02:00N 43°60' W 002°05'0 0.5
2017-Nov-17 01:30N 43°60' W 002°05'0 0.4
2017-Nov-17 01:00N 44°00' W 002°05'0 0.4
2017-Nov-17 00:30N 44°00' W 002°05'0 0.4
2017-Nov-17 00:00N 44°00' W 002°05'0 0.4
2017-Nov-16 23:30N 44°01' W 002°05'0 0.3
2017-Nov-16 23:00N 44°01' W 002°05'0 0.4
2017-Nov-16 22:30N 44°01' W 002°06'0 0.3
2017-Nov-16 22:00N 44°01' W 002°06'0 0.2
2017-Nov-16 21:30N 44°01' W 002°06'0 0.2
2017-Nov-16 21:00N 44°01' W 002°06'0 0.3
2017-Nov-16 20:29N 44°01' W 002°06'0 0.2
2017-Nov-16 19:59N 44°02' W 002°06'0 0.2
2017-Nov-16 19:30N 44°02' W 002°06'0 0.3
2017-Nov-16 19:00N 44°02' W 002°06'0 0.2
2017-Nov-16 18:30N 44°02' W 002°06'1 1.4
2017-Nov-16 18:00N 44°02' W 002°07'0 0.4
2017-Nov-16 17:30N 44°01' W 002°07'0 0.1
2017-Nov-16 17:00N 44°01' W 002°07'0 0.3
2017-Nov-16 16:30N 44°01' W 002°07'0 0.3
2017-Nov-16 16:00N 44°01' W 002°07'0 0.4
2017-Nov-16 15:30N 44°01' W 002°07'0 0.4
2017-Nov-16 15:00N 44°01' W 002°07'0 0.3
2017-Nov-16 14:31N 44°01' W 002°07'0 0.3
2017-Nov-16 14:01N 44°00' W 002°07'0 0.4
2017-Nov-16 13:29N 44°00' W 002°07'0 0.4
2017-Nov-16 13:00N 43°60' W 002°07'0 0.2
2017-Nov-16 12:30N 43°60' W 002°07'0 0.4
2017-Nov-16 12:00N 43°60' W 002°07'0 0.5
2017-Nov-16 11:30N 43°59' W 002°07'0 0.5
2017-Nov-16 11:00N 43°59' W 002°07'0 0.4
2017-Nov-16 10:30N 43°59' W 002°07'0 0.5
2017-Nov-16 09:59N 43°59' W 002°07'0 0.5
2017-Nov-16 09:31N 43°59' W 002°07'0 0.3
2017-Nov-16 09:00N 43°58' W 002°08'2 5.1
2017-Nov-16 08:30N 43°56' W 002°08'0 0.7
2017-Nov-16 08:00N 43°56' W 002°08'0 0.8
2017-Nov-16 07:30N 43°57' W 002°08'0 0.8
2017-Nov-16 07:00N 43°57' W 002°07'0 0.8
2017-Nov-16 06:30N 43°57' W 002°07'0 0.8
2017-Nov-16 06:00N 43°58' W 002°08'0 0.8
2017-Nov-16 05:29N 43°58' W 002°08'1 2.1
2017-Nov-16 05:00N 43°59' W 002°07'1 2.6
2017-Nov-16 04:30N 44°00' W 002°07'1 2.2
2017-Nov-16 04:00N 44°02' W 002°07'0 0.8
2017-Nov-16 03:30N 44°02' W 002°06'2 3.4
2017-Nov-16 03:00N 44°02' W 002°09'2 3.5
2017-Nov-16 02:30N 44°01' W 002°11'0 0.2
2017-Nov-16 01:59N 44°01' W 002°11'0 0.3
2017-Nov-16 01:30N 44°01' W 002°11'0 0.5
2017-Nov-16 01:01N 44°01' W 002°10'0 0.6
2017-Nov-16 00:29N 44°01' W 002°10'0 0.7
2017-Nov-16 00:00N 44°01' W 002°10'0 0.7
2017-Nov-15 23:30N 44°01' W 002°09'0 0.8
2017-Nov-15 23:00N 44°01' W 002°09'0 0.8
2017-Nov-15 22:30N 44°01' W 002°08'0 0.8
2017-Nov-15 22:00N 44°01' W 002°07'0 0.9
2017-Nov-15 21:30N 44°01' W 002°07'0 0.9
2017-Nov-15 21:00N 44°02' W 002°06'0 1.0
2017-Nov-15 20:30N 44°02' W 002°06'0 0.9
2017-Nov-15 20:00N 44°02' W 002°05'0 0.8
2017-Nov-15 19:30N 44°02' W 002°05'0 0.8
2017-Nov-15 19:00N 44°03' W 002°04'0 0.4
2017-Nov-15 18:31N 44°03' W 002°04'2 4.9
2017-Nov-15 18:00N 44°00' W 002°05'3 5.2
2017-Nov-15 17:30N 43°58' W 002°08'0 0.4
2017-Nov-15 17:00N 43°58' W 002°08'0 0.3
2017-Nov-15 16:30N 43°59' W 002°07'0 0.5
2017-Nov-15 15:59N 43°59' W 002°08'0 0.3
2017-Nov-15 15:30N 43°59' W 002°07'0 0.4
2017-Nov-15 15:00N 43°59' W 002°07'0 0.3
2017-Nov-15 14:30N 43°59' W 002°07'0 0.4
2017-Nov-15 14:00N 43°59' W 002°07'0 0.6
2017-Nov-15 13:31N 43°60' W 002°07'0 0.6
2017-Nov-15 13:00N 44°00' W 002°07'0 0.3
2017-Nov-15 12:30N 44°00' W 002°07'0 0.2
2017-Nov-15 12:00N 44°00' W 002°07'0 0.4
2017-Nov-15 11:30N 44°00' W 002°07'0 0.4
2017-Nov-15 11:01N 44°01' W 002°07'0 0.5
2017-Nov-15 10:30N 44°01' W 002°07'0 0.5
2017-Nov-15 09:59N 44°01' W 002°07'0 0.4
2017-Nov-15 09:30N 44°01' W 002°07'0 0.4
2017-Nov-15 09:00N 44°02' W 002°07'0 0.3
2017-Nov-15 08:30N 44°02' W 002°07'2 4.9
2017-Nov-15 08:00N 43°60' W 002°09'0 0.6
2017-Nov-15 07:30N 43°60' W 002°08'0 0.7
2017-Nov-15 07:00N 43°60' W 002°08'0 0.6
2017-Nov-15 06:30N 43°60' W 002°07'0 0.6
2017-Nov-15 06:00N 43°60' W 002°07'1 1.6
2017-Nov-15 05:30N 43°59' W 002°07'0 0.7
2017-Nov-15 05:00N 43°59' W 002°08'1 2.7
2017-Nov-15 04:31N 44°00' W 002°07'1 2.7
2017-Nov-15 04:00N 44°02' W 002°07'1 1.6
2017-Nov-15 03:30N 44°02' W 002°06'3 5.8
2017-Nov-15 03:00N 44°00' W 002°09'3 5.8
2017-Nov-15 02:30N 43°58' W 002°12'0 0.7
2017-Nov-15 02:00N 43°58' W 002°12'0 0.8
2017-Nov-15 01:30N 43°58' W 002°12'0 0.9
2017-Nov-15 01:01N 43°58' W 002°11'0 0.9
2017-Nov-15 00:30N 43°59' W 002°11'0 0.9
2017-Nov-15 00:00N 43°59' W 002°10'0 1.0
2017-Nov-14 23:30N 43°59' W 002°10'0 1.0
2017-Nov-14 23:00N 43°59' W 002°09'1 1.0
2017-Nov-14 22:30N 43°60' W 002°09'0 1.0
2017-Nov-14 22:00N 44°00' W 002°08'0 0.9
2017-Nov-14 21:30N 44°00' W 002°08'0 0.8
2017-Nov-14 21:00N 44°01' W 002°07'0 0.7
2017-Nov-14 20:30N 44°01' W 002°07'0 0.7
2017-Nov-14 20:00N 44°01' W 002°07'0 0.7
2017-Nov-14 19:30N 44°02' W 002°07'2 4.5
2017-Nov-14 19:00N 43°59' W 002°08'1 2.1
2017-Nov-14 18:30N 43°58' W 002°08'0 0.4
2017-Nov-14 18:00N 43°59' W 002°08'0 0.5
2017-Nov-14 17:30N 43°59' W 002°08'0 0.4
2017-Nov-14 17:00N 43°59' W 002°08'0 0.3
2017-Nov-14 16:30N 43°59' W 002°08'0 0.3
2017-Nov-14 16:00N 43°59' W 002°08'0 0.4
2017-Nov-14 15:30N 43°60' W 002°08'0 0.5
2017-Nov-14 15:00N 43°60' W 002°07'0 0.2
2017-Nov-14 14:30N 43°60' W 002°07'0 0.3
2017-Nov-14 14:00N 44°00' W 002°07'0 0.3
2017-Nov-14 13:30N 44°00' W 002°07'0 0.4
2017-Nov-14 13:00N 44°00' W 002°07'0 0.4
2017-Nov-14 12:30N 44°01' W 002°07'0 0.4
2017-Nov-14 12:00N 44°01' W 002°07'0 0.3
2017-Nov-14 11:30N 44°01' W 002°07'0 0.5
2017-Nov-14 11:00N 44°01' W 002°07'0 0.4
2017-Nov-14 10:30N 44°01' W 002°07'0 0.3
2017-Nov-14 10:00N 44°01' W 002°07'0 0.8
2017-Nov-14 09:30N 44°02' W 002°07'2 3.4
2017-Nov-14 09:00N 44°00' W 002°07'4 7.2
2017-Nov-14 08:30N 43°56' W 002°08'1 1.2
2017-Nov-14 08:00N 43°56' W 002°08'1 1.0
2017-Nov-14 07:30N 43°57' W 002°08'0 1.0
2017-Nov-14 07:00N 43°57' W 002°08'0 0.9
2017-Nov-14 06:30N 43°58' W 002°08'0 0.9
2017-Nov-14 06:00N 43°58' W 002°08'0 1.0
2017-Nov-14 05:30N 43°58' W 002°08'1 2.2
2017-Nov-14 05:00N 43°60' W 002°07'1 2.2
2017-Nov-14 04:30N 44°01' W 002°07'1 2.3
2017-Nov-14 04:00N 44°02' W 002°07'1 2.0
2017-Nov-14 03:30N 44°02' W 002°07'0 0.6
2017-Nov-14 03:00N 44°03' W 002°07'0 0.6
2017-Nov-14 02:30N 44°03' W 002°07'0 0.6
2017-Nov-14 02:00N 44°03' W 002°07'0 0.5
2017-Nov-14 01:30N 44°03' W 002°07'0 0.4
2017-Nov-14 01:00N 44°04' W 002°07'0 0.5
2017-Nov-14 00:30N 44°04' W 002°06'1 2.3
2017-Nov-14 00:01N 44°03' W 002°06'3 6.8
2017-Nov-13 23:30N 43°59' W 002°07'3 6.7
2017-Nov-13 23:00N 43°56' W 002°09'3 5.4
2017-Nov-13 22:31N 43°54' W 002°10'4 7.1
2017-Nov-13 22:00N 43°51' W 002°12'  
2017-Nov-10 10:28N 43°25' W 002°43'0 0.0
2017-Nov-10 10:00N 43°25' W 002°43'0 0.0
2017-Nov-10 09:30N 43°25' W 002°43'0 0.0
2017-Nov-10 09:00N 43°25' W 002°43'0 0.0
2017-Nov-10 08:30N 43°25' W 002°43'0 0.0
2017-Nov-10 08:00N 43°25' W 002°43'0 0.0
2017-Nov-10 07:30N 43°25' W 002°43'0 0.0
2017-Nov-09 10:04N 43°25' W 002°43'0 0.0
2017-Nov-09 10:00N 43°25' W 002°43'0 0.0
2017-Nov-09 09:30N 43°25' W 002°43'0 0.0
2017-Nov-09 09:00N 43°25' W 002°43'0 0.0
2017-Nov-09 08:30N 43°25' W 002°43'0 0.0
2017-Nov-09 08:00N 43°25' W 002°43'0 0.0
2017-Nov-09 07:30N 43°25' W 002°43'0 0.0
2017-Nov-08 10:27N 43°25' W 002°43'0 0.0
2017-Nov-08 10:00N 43°25' W 002°43'0 0.0
2017-Nov-08 09:29N 43°25' W 002°43'0 0.0
2017-Nov-08 09:00N 43°25' W 002°43'  
Track history (hours):
 
Tides and Currents Weather Stations Pressure Air Temp Water Temp Dewpoint Dewpoint Depression Visibility Wind Speed Wind Dir Waves Ship Positions

Gure Fatima :

Last reported at 2017-Nov-18 08:48 UTC. Time now 2017-Nov-18 12:27 UTC.
Position N 43°25' W 002°43'.

Length 28 m; draft 3.2 m.

Type: Fishing. MMSI: 224081840.

Date/timePositionNaut miles runAvg speedWind from/ knotsBaromVisibWave heightAir tempDewpointWater temp
2017-Nov-18 08:48N 43°25' W 002°43'0 0.0
2017-Nov-18 08:30N 43°25' W 002°43'0 0.2
2017-Nov-18 08:00N 43°25' W 002°43'0 0.0
2017-Nov-17 23:09N 43°25' W 002°43'0 0.0
2017-Nov-17 23:00N 43°25' W 002°43'0 0.1
2017-Nov-17 22:30N 43°25' W 002°43'1 2.2
2017-Nov-17 22:00N 43°26' W 002°42'5 9.1
2017-Nov-17 21:30N 43°30' W 002°39'5 9.2
2017-Nov-17 21:01N 43°33' W 002°35'5 9.2
2017-Nov-17 20:30N 43°37' W 002°31'5 9.2
2017-Nov-17 20:00N 43°41' W 002°27'5 9.2
2017-Nov-17 19:30N 43°44' W 002°23'5 9.3
2017-Nov-17 19:00N 43°48' W 002°20'5 9.4
2017-Nov-17 18:30N 43°52' W 002°16'5 9.3
2017-Nov-17 18:01N 43°56' W 002°12'5 9.1
2017-Nov-17 17:30N 43°60' W 002°09'2 3.0
2017-Nov-17 17:00N 44°01' W 002°07'0 0.7
2017-Nov-17 16:30N 44°01' W 002°07'0 0.4
2017-Nov-17 16:01N 44°01' W 002°07'0 0.3
2017-Nov-17 15:31N 44°01' W 002°07'0 0.4
2017-Nov-17 15:00N 44°01' W 002°07'0 0.5
2017-Nov-17 14:30N 44°01' W 002°07'0 0.4
2017-Nov-17 14:01N 44°00' W 002°07'0 0.3
2017-Nov-17 13:31N 44°00' W 002°07'0 0.6
2017-Nov-17 13:00N 44°00' W 002°07'0 0.4
2017-Nov-17 12:30N 43°60' W 002°07'0 0.3
2017-Nov-17 12:00N 43°60' W 002°07'0 0.5
2017-Nov-17 11:30N 43°59' W 002°07'0 0.5
2017-Nov-17 11:01N 43°59' W 002°07'0 0.4
2017-Nov-17 10:31N 43°59' W 002°07'0 0.5
2017-Nov-17 10:01N 43°59' W 002°08'0 0.5
2017-Nov-17 09:30N 43°59' W 002°08'1 2.0
2017-Nov-17 09:00N 43°58' W 002°08'0 0.2
2017-Nov-17 08:30N 43°58' W 002°08'0 0.3
2017-Nov-17 08:00N 43°58' W 002°08'0 0.3
2017-Nov-17 07:30N 43°58' W 002°07'0 0.3
2017-Nov-17 07:00N 43°58' W 002°07'0 0.3
2017-Nov-17 06:30N 43°58' W 002°07'0 0.5
2017-Nov-17 06:00N 43°58' W 002°07'0 0.4
2017-Nov-17 05:30N 43°58' W 002°07'0 0.9
2017-Nov-17 05:00N 43°58' W 002°08'1 2.8
2017-Nov-17 04:30N 43°60' W 002°07'1 2.8
2017-Nov-17 04:00N 44°01' W 002°07'1 1.6
2017-Nov-17 03:29N 44°02' W 002°06'2 4.8
2017-Nov-17 03:00N 43°59' W 002°05'0 0.2
2017-Nov-17 02:30N 43°59' W 002°05'0 0.5
2017-Nov-17 02:00N 43°60' W 002°05'0 0.5
2017-Nov-17 01:30N 43°60' W 002°05'0 0.4
2017-Nov-17 01:00N 44°00' W 002°05'0 0.4
2017-Nov-17 00:30N 44°00' W 002°05'0 0.4
2017-Nov-17 00:00N 44°00' W 002°05'0 0.4
2017-Nov-16 23:30N 44°01' W 002°05'0 0.3
2017-Nov-16 23:00N 44°01' W 002°05'0 0.4
2017-Nov-16 22:30N 44°01' W 002°06'0 0.3
2017-Nov-16 22:00N 44°01' W 002°06'0 0.2
2017-Nov-16 21:30N 44°01' W 002°06'0 0.2
2017-Nov-16 21:00N 44°01' W 002°06'0 0.3
2017-Nov-16 20:29N 44°01' W 002°06'0 0.2
2017-Nov-16 19:59N 44°02' W 002°06'0 0.2
2017-Nov-16 19:30N 44°02' W 002°06'0 0.3
2017-Nov-16 19:00N 44°02' W 002°06'0 0.2
2017-Nov-16 18:30N 44°02' W 002°06'1 1.4
2017-Nov-16 18:00N 44°02' W 002°07'0 0.4
2017-Nov-16 17:30N 44°01' W 002°07'0 0.1
2017-Nov-16 17:00N 44°01' W 002°07'0 0.3
2017-Nov-16 16:30N 44°01' W 002°07'0 0.3
2017-Nov-16 16:00N 44°01' W 002°07'0 0.4
2017-Nov-16 15:30N 44°01' W 002°07'0 0.4
2017-Nov-16 15:00N 44°01' W 002°07'0 0.3
2017-Nov-16 14:31N 44°01' W 002°07'0 0.3
2017-Nov-16 14:01N 44°00' W 002°07'0 0.4
2017-Nov-16 13:29N 44°00' W 002°07'0 0.4
2017-Nov-16 13:00N 43°60' W 002°07'0 0.2
2017-Nov-16 12:30N 43°60' W 002°07'0 0.4
2017-Nov-16 12:00N 43°60' W 002°07'0 0.5
2017-Nov-16 11:30N 43°59' W 002°07'0 0.5
2017-Nov-16 11:00N 43°59' W 002°07'0 0.4
2017-Nov-16 10:30N 43°59' W 002°07'0 0.5
2017-Nov-16 09:59N 43°59' W 002°07'0 0.5
2017-Nov-16 09:31N 43°59' W 002°07'0 0.3
2017-Nov-16 09:00N 43°58' W 002°08'2 5.1
2017-Nov-16 08:30N 43°56' W 002°08'0 0.7
2017-Nov-16 08:00N 43°56' W 002°08'0 0.8
2017-Nov-16 07:30N 43°57' W 002°08'0 0.8
2017-Nov-16 07:00N 43°57' W 002°07'0 0.8
2017-Nov-16 06:30N 43°57' W 002°07'0 0.8
2017-Nov-16 06:00N 43°58' W 002°08'0 0.8
2017-Nov-16 05:29N 43°58' W 002°08'1 2.1
2017-Nov-16 05:00N 43°59' W 002°07'1 2.6
2017-Nov-16 04:30N 44°00' W 002°07'1 2.2
2017-Nov-16 04:00N 44°02' W 002°07'0 0.8
2017-Nov-16 03:30N 44°02' W 002°06'2 3.4
2017-Nov-16 03:00N 44°02' W 002°09'2 3.5
2017-Nov-16 02:30N 44°01' W 002°11'0 0.2
2017-Nov-16 01:59N 44°01' W 002°11'0 0.3
2017-Nov-16 01:30N 44°01' W 002°11'0 0.5
2017-Nov-16 01:01N 44°01' W 002°10'0 0.6
2017-Nov-16 00:29N 44°01' W 002°10'0 0.7
2017-Nov-16 00:00N 44°01' W 002°10'0 0.7
2017-Nov-15 23:30N 44°01' W 002°09'0 0.8
2017-Nov-15 23:00N 44°01' W 002°09'0 0.8
2017-Nov-15 22:30N 44°01' W 002°08'0 0.8
2017-Nov-15 22:00N 44°01' W 002°07'0 0.9
2017-Nov-15 21:30N 44°01' W 002°07'0 0.9
2017-Nov-15 21:00N 44°02' W 002°06'0 1.0
2017-Nov-15 20:30N 44°02' W 002°06'0 0.9
2017-Nov-15 20:00N 44°02' W 002°05'0 0.8
2017-Nov-15 19:30N 44°02' W 002°05'0 0.8
2017-Nov-15 19:00N 44°03' W 002°04'0 0.4
2017-Nov-15 18:31N 44°03' W 002°04'2 4.9
2017-Nov-15 18:00N 44°00' W 002°05'3 5.2
2017-Nov-15 17:30N 43°58' W 002°08'0 0.4
2017-Nov-15 17:00N 43°58' W 002°08'0 0.3
2017-Nov-15 16:30N 43°59' W 002°07'0 0.5
2017-Nov-15 15:59N 43°59' W 002°08'0 0.3
2017-Nov-15 15:30N 43°59' W 002°07'0 0.4
2017-Nov-15 15:00N 43°59' W 002°07'0 0.3
2017-Nov-15 14:30N 43°59' W 002°07'0 0.4
2017-Nov-15 14:00N 43°59' W 002°07'0 0.6
2017-Nov-15 13:31N 43°60' W 002°07'0 0.6
2017-Nov-15 13:00N 44°00' W 002°07'0 0.3
2017-Nov-15 12:30N 44°00' W 002°07'0 0.2
2017-Nov-15 12:00N 44°00' W 002°07'0 0.4
2017-Nov-15 11:30N 44°00' W 002°07'0 0.4
2017-Nov-15 11:01N 44°01' W 002°07'0 0.5
2017-Nov-15 10:30N 44°01' W 002°07'0 0.5
2017-Nov-15 09:59N 44°01' W 002°07'0 0.4
2017-Nov-15 09:30N 44°01' W 002°07'0 0.4
2017-Nov-15 09:00N 44°02' W 002°07'0 0.3
2017-Nov-15 08:30N 44°02' W 002°07'2 4.9
2017-Nov-15 08:00N 43°60' W 002°09'0 0.6
2017-Nov-15 07:30N 43°60' W 002°08'0 0.7
2017-Nov-15 07:00N 43°60' W 002°08'0 0.6
2017-Nov-15 06:30N 43°60' W 002°07'0 0.6
2017-Nov-15 06:00N 43°60' W 002°07'1 1.6
2017-Nov-15 05:30N 43°59' W 002°07'0 0.7
2017-Nov-15 05:00N 43°59' W 002°08'1 2.7
2017-Nov-15 04:31N 44°00' W 002°07'1 2.7
2017-Nov-15 04:00N 44°02' W 002°07'1 1.6
2017-Nov-15 03:30N 44°02' W 002°06'3 5.8
2017-Nov-15 03:00N 44°00' W 002°09'3 5.8
2017-Nov-15 02:30N 43°58' W 002°12'0 0.7
2017-Nov-15 02:00N 43°58' W 002°12'0 0.8
2017-Nov-15 01:30N 43°58' W 002°12'0 0.9
2017-Nov-15 01:01N 43°58' W 002°11'0 0.9
2017-Nov-15 00:30N 43°59' W 002°11'0 0.9
2017-Nov-15 00:00N 43°59' W 002°10'0 1.0
2017-Nov-14 23:30N 43°59' W 002°10'0 1.0
2017-Nov-14 23:00N 43°59' W 002°09'1 1.0
2017-Nov-14 22:30N 43°60' W 002°09'0 1.0
2017-Nov-14 22:00N 44°00' W 002°08'0 0.9
2017-Nov-14 21:30N 44°00' W 002°08'0 0.8
2017-Nov-14 21:00N 44°01' W 002°07'0 0.7
2017-Nov-14 20:30N 44°01' W 002°07'0 0.7
2017-Nov-14 20:00N 44°01' W 002°07'0 0.7
2017-Nov-14 19:30N 44°02' W 002°07'2 4.5
2017-Nov-14 19:00N 43°59' W 002°08'1 2.1
2017-Nov-14 18:30N 43°58' W 002°08'0 0.4
2017-Nov-14 18:00N 43°59' W 002°08'0 0.5
2017-Nov-14 17:30N 43°59' W 002°08'0 0.4
2017-Nov-14 17:00N 43°59' W 002°08'0 0.3
2017-Nov-14 16:30N 43°59' W 002°08'0 0.3
2017-Nov-14 16:00N 43°59' W 002°08'0 0.4
2017-Nov-14 15:30N 43°60' W 002°08'0 0.5
2017-Nov-14 15:00N 43°60' W 002°07'0 0.2
2017-Nov-14 14:30N 43°60' W 002°07'0 0.3
2017-Nov-14 14:00N 44°00' W 002°07'0 0.3
2017-Nov-14 13:30N 44°00' W 002°07'0 0.4
2017-Nov-14 13:00N 44°00' W 002°07'0 0.4
2017-Nov-14 12:30N 44°01' W 002°07'0 0.4
2017-Nov-14 12:00N 44°01' W 002°07'0 0.3
2017-Nov-14 11:30N 44°01' W 002°07'0 0.5
2017-Nov-14 11:00N 44°01' W 002°07'0 0.4
2017-Nov-14 10:30N 44°01' W 002°07'0 0.3
2017-Nov-14 10:00N 44°01' W 002°07'0 0.8
2017-Nov-14 09:30N 44°02' W 002°07'2 3.4
2017-Nov-14 09:00N 44°00' W 002°07'4 7.2
2017-Nov-14 08:30N 43°56' W 002°08'1 1.2
2017-Nov-14 08:00N 43°56' W 002°08'1 1.0
2017-Nov-14 07:30N 43°57' W 002°08'0 1.0
2017-Nov-14 07:00N 43°57' W 002°08'0 0.9
2017-Nov-14 06:30N 43°58' W 002°08'0 0.9
2017-Nov-14 06:00N 43°58' W 002°08'0 1.0
2017-Nov-14 05:30N 43°58' W 002°08'1 2.2
2017-Nov-14 05:00N 43°60' W 002°07'1 2.2
2017-Nov-14 04:30N 44°01' W 002°07'1 2.3
2017-Nov-14 04:00N 44°02' W 002°07'1 2.0
2017-Nov-14 03:30N 44°02' W 002°07'0 0.6
2017-Nov-14 03:00N 44°03' W 002°07'0 0.6
2017-Nov-14 02:30N 44°03' W 002°07'0 0.6
2017-Nov-14 02:00N 44°03' W 002°07'0 0.5
2017-Nov-14 01:30N 44°03' W 002°07'0 0.4
2017-Nov-14 01:00N 44°04' W 002°07'0 0.5
2017-Nov-14 00:30N 44°04' W 002°06'1 2.3
2017-Nov-14 00:01N 44°03' W 002°06'3 6.8
2017-Nov-13 23:30N 43°59' W 002°07'3 6.7
2017-Nov-13 23:00N 43°56' W 002°09'3 5.4
2017-Nov-13 22:31N 43°54' W 002°10'4 7.1
2017-Nov-13 22:00N 43°51' W 002°12'  
2017-Nov-10 10:28N 43°25' W 002°43'0 0.0
2017-Nov-10 10:00N 43°25' W 002°43'0 0.0
2017-Nov-10 09:30N 43°25' W 002°43'0 0.0
2017-Nov-10 09:00N 43°25' W 002°43'0 0.0
2017-Nov-10 08:30N 43°25' W 002°43'0 0.0
2017-Nov-10 08:00N 43°25' W 002°43'0 0.0
2017-Nov-10 07:30N 43°25' W 002°43'0 0.0
2017-Nov-09 10:04N 43°25' W 002°43'0 0.0
2017-Nov-09 10:00N 43°25' W 002°43'0 0.0
2017-Nov-09 09:30N 43°25' W 002°43'0 0.0
2017-Nov-09 09:00N 43°25' W 002°43'0 0.0
2017-Nov-09 08:30N 43°25' W 002°43'0 0.0
2017-Nov-09 08:00N 43°25' W 002°43'0 0.0
2017-Nov-09 07:30N 43°25' W 002°43'0 0.0
2017-Nov-08 10:27N 43°25' W 002°43'0 0.0
2017-Nov-08 10:00N 43°25' W 002°43'0 0.0
2017-Nov-08 09:29N 43°25' W 002°43'0 0.0
2017-Nov-08 09:00N 43°25' W 002°43'  

Dump ship's entire track history